sensor_id;sensor_type;location;lat;lon;timestamp;pressure;altitude;pressure_sealevel;temperature
71463;BMP180;59266;52.608;13.260;2023-04-03T00:00:56;102619.00;;;0.70
71463;BMP180;59266;52.608;13.260;2023-04-03T00:03:23;102620.00;;;0.70
71463;BMP180;59266;52.608;13.260;2023-04-03T00:05:50;102631.00;;;0.60
71463;BMP180;59266;52.608;13.260;2023-04-03T00:08:17;102625.00;;;0.60
71463;BMP180;59266;52.608;13.260;2023-04-03T00:10:44;102626.00;;;0.60
71463;BMP180;59266;52.608;13.260;2023-04-03T00:13:13;102610.00;;;0.60
71463;BMP180;59266;52.608;13.260;2023-04-03T00:15:41;102610.00;;;0.50
71463;BMP180;59266;52.608;13.260;2023-04-03T00:18:08;102621.00;;;0.40
71463;BMP180;59266;52.608;13.260;2023-04-03T00:20:35;102624.00;;;0.50
71463;BMP180;59266;52.608;13.260;2023-04-03T00:23:02;102628.00;;;0.40
71463;BMP180;59266;52.608;13.260;2023-04-03T00:25:29;102627.00;;;0.40
71463;BMP180;59266;52.608;13.260;2023-04-03T00:27:56;102630.00;;;0.40
71463;BMP180;59266;52.608;13.260;2023-04-03T00:30:23;102639.00;;;0.40
71463;BMP180;59266;52.608;13.260;2023-04-03T00:32:51;102634.00;;;0.40
71463;BMP180;59266;52.608;13.260;2023-04-03T00:35:20;102627.00;;;0.40
71463;BMP180;59266;52.608;13.260;2023-04-03T00:37:50;102633.00;;;0.40
71463;BMP180;59266;52.608;13.260;2023-04-03T00:40:18;102630.00;;;0.40
71463;BMP180;59266;52.608;13.260;2023-04-03T00:42:46;102628.00;;;0.30
71463;BMP180;59266;52.608;13.260;2023-04-03T00:47:44;102628.00;;;0.20
71463;BMP180;59266;52.608;13.260;2023-04-03T00:50:11;102619.00;;;0.20
71463;BMP180;59266;52.608;13.260;2023-04-03T00:52:38;102624.00;;;0.20
71463;BMP180;59266;52.608;13.260;2023-04-03T00:55:08;102629.00;;;0.20
71463;BMP180;59266;52.608;13.260;2023-04-03T00:57:35;102628.00;;;0.30
71463;BMP180;59266;52.608;13.260;2023-04-03T01:00:06;102643.00;;;0.20
71463;BMP180;59266;52.608;13.260;2023-04-03T01:02:35;102632.00;;;0.10
71463;BMP180;59266;52.608;13.260;2023-04-03T01:05:03;102655.00;;;0.00
71463;BMP180;59266;52.608;13.260;2023-04-03T01:07:30;102648.00;;;0.20
71463;BMP180;59266;52.608;13.260;2023-04-03T01:10:02;102643.00;;;0.00
71463;BMP180;59266;52.608;13.260;2023-04-03T01:12:38;102644.00;;;0.10
71463;BMP180;59266;52.608;13.260;2023-04-03T01:17:46;102650.00;;;-0.20
71463;BMP180;59266;52.608;13.260;2023-04-03T01:23:12;102647.00;;;-0.10
71463;BMP180;59266;52.608;13.260;2023-04-03T01:25:47;102646.00;;;-0.30
71463;BMP180;59266;52.608;13.260;2023-04-03T01:28:20;102645.00;;;-0.30
71463;BMP180;59266;52.608;13.260;2023-04-03T01:33:42;102653.00;;;-0.30
71463;BMP180;59266;52.608;13.260;2023-04-03T01:36:10;102634.00;;;-0.40
71463;BMP180;59266;52.608;13.260;2023-04-03T01:38:39;102650.00;;;-0.50
71463;BMP180;59266;52.608;13.260;2023-04-03T01:41:06;102667.00;;;-0.50
71463;BMP180;59266;52.608;13.260;2023-04-03T01:43:35;102661.00;;;-0.60
71463;BMP180;59266;52.608;13.260;2023-04-03T01:46:03;102663.00;;;-0.60
71463;BMP180;59266;52.608;13.260;2023-04-03T01:48:33;102660.00;;;-0.70
71463;BMP180;59266;52.608;13.260;2023-04-03T01:51:02;102662.00;;;-0.70
71463;BMP180;59266;52.608;13.260;2023-04-03T01:53:28;102660.00;;;-0.70
71463;BMP180;59266;52.608;13.260;2023-04-03T01:55:55;102657.00;;;-0.70
71463;BMP180;59266;52.608;13.260;2023-04-03T01:58:22;102657.00;;;-0.60
71463;BMP180;59266;52.608;13.260;2023-04-03T02:00:50;102662.00;;;-0.70
71463;BMP180;59266;52.608;13.260;2023-04-03T02:03:17;102650.00;;;-0.80
71463;BMP180;59266;52.608;13.260;2023-04-03T02:05:45;102664.00;;;-0.90
71463;BMP180;59266;52.608;13.260;2023-04-03T02:08:11;102670.00;;;-0.90
71463;BMP180;59266;52.608;13.260;2023-04-03T02:10:39;102668.00;;;-0.90
71463;BMP180;59266;52.608;13.260;2023-04-03T02:13:06;102641.00;;;-0.90
71463;BMP180;59266;52.608;13.260;2023-04-03T02:15:33;102648.00;;;-0.90
71463;BMP180;59266;52.608;13.260;2023-04-03T02:17:59;102668.00;;;-0.90
71463;BMP180;59266;52.608;13.260;2023-04-03T02:20:26;102667.00;;;-1.00
71463;BMP180;59266;52.608;13.260;2023-04-03T02:22:53;102685.00;;;-1.00
71463;BMP180;59266;52.608;13.260;2023-04-03T02:25:19;102672.00;;;-1.10
71463;BMP180;59266;52.608;13.260;2023-04-03T02:27:46;102692.00;;;-1.20
71463;BMP180;59266;52.608;13.260;2023-04-03T02:30:14;102689.00;;;-1.20
71463;BMP180;59266;52.608;13.260;2023-04-03T02:32:42;102675.00;;;-1.20
71463;BMP180;59266;52.608;13.260;2023-04-03T02:35:11;102697.00;;;-1.10
71463;BMP180;59266;52.608;13.260;2023-04-03T02:37:38;102697.00;;;-1.10
71463;BMP180;59266;52.608;13.260;2023-04-03T02:40:06;102696.00;;;-1.10
71463;BMP180;59266;52.608;13.260;2023-04-03T02:42:33;102708.00;;;-1.20
71463;BMP180;59266;52.608;13.260;2023-04-03T02:45:00;102697.00;;;-1.20
71463;BMP180;59266;52.608;13.260;2023-04-03T02:47:27;102708.00;;;-1.20
71463;BMP180;59266;52.608;13.260;2023-04-03T02:49:54;102699.00;;;-1.30
71463;BMP180;59266;52.608;13.260;2023-04-03T02:52:21;102687.00;;;-1.30
71463;BMP180;59266;52.608;13.260;2023-04-03T02:54:48;102709.00;;;-1.20
71463;BMP180;59266;52.608;13.260;2023-04-03T02:57:15;102708.00;;;-1.20
71463;BMP180;59266;52.608;13.260;2023-04-03T02:59:42;102714.00;;;-1.20
71463;BMP180;59266;52.608;13.260;2023-04-03T03:02:08;102701.00;;;-1.30
71463;BMP180;59266;52.608;13.260;2023-04-03T03:04:35;102714.00;;;-1.30
71463;BMP180;59266;52.608;13.260;2023-04-03T03:07:02;102710.00;;;-1.30
71463;BMP180;59266;52.608;13.260;2023-04-03T03:09:29;102708.00;;;-1.30
71463;BMP180;59266;52.608;13.260;2023-04-03T03:11:56;102708.00;;;-1.40
71463;BMP180;59266;52.608;13.260;2023-04-03T03:14:23;102710.00;;;-1.40
71463;BMP180;59266;52.608;13.260;2023-04-03T03:16:51;102716.00;;;-1.50
71463;BMP180;59266;52.608;13.260;2023-04-03T03:19:18;102727.00;;;-1.40
71463;BMP180;59266;52.608;13.260;2023-04-03T03:21:44;102705.00;;;-1.50
71463;BMP180;59266;52.608;13.260;2023-04-03T03:24:12;102721.00;;;-1.50
71463;BMP180;59266;52.608;13.260;2023-04-03T03:26:41;102722.00;;;-1.50
71463;BMP180;59266;52.608;13.260;2023-04-03T03:29:09;102707.00;;;-1.50
71463;BMP180;59266;52.608;13.260;2023-04-03T03:31:36;102718.00;;;-1.50
71463;BMP180;59266;52.608;13.260;2023-04-03T03:34:04;102732.00;;;-1.40
71463;BMP180;59266;52.608;13.260;2023-04-03T03:36:31;102726.00;;;-1.50
71463;BMP180;59266;52.608;13.260;2023-04-03T03:38:58;102721.00;;;-1.40
71463;BMP180;59266;52.608;13.260;2023-04-03T03:41:25;102724.00;;;-1.50
71463;BMP180;59266;52.608;13.260;2023-04-03T03:43:52;102723.00;;;-1.50
71463;BMP180;59266;52.608;13.260;2023-04-03T03:46:19;102720.00;;;-1.50
71463;BMP180;59266;52.608;13.260;2023-04-03T03:48:45;102717.00;;;-1.50
71463;BMP180;59266;52.608;13.260;2023-04-03T03:51:14;102730.00;;;-1.50
71463;BMP180;59266;52.608;13.260;2023-04-03T03:53:41;102713.00;;;-1.60
71463;BMP180;59266;52.608;13.260;2023-04-03T03:56:07;102718.00;;;-1.60
71463;BMP180;59266;52.608;13.260;2023-04-03T03:58:34;102720.00;;;-1.60
71463;BMP180;59266;52.608;13.260;2023-04-03T04:01:03;102714.00;;;-1.50
71463;BMP180;59266;52.608;13.260;2023-04-03T04:03:30;102728.00;;;-1.60
71463;BMP180;59266;52.608;13.260;2023-04-03T04:05:56;102709.00;;;-1.70
71463;BMP180;59266;52.608;13.260;2023-04-03T04:08:23;102717.00;;;-1.70
71463;BMP180;59266;52.608;13.260;2023-04-03T04:10:50;102711.00;;;-1.70
71463;BMP180;59266;52.608;13.260;2023-04-03T04:13:17;102709.00;;;-1.70
71463;BMP180;59266;52.608;13.260;2023-04-03T04:15:44;102716.00;;;-1.80
71463;BMP180;59266;52.608;13.260;2023-04-03T04:18:11;102689.00;;;-1.70
71463;BMP180;59266;52.608;13.260;2023-04-03T04:20:38;102704.00;;;-1.70
71463;BMP180;59266;52.608;13.260;2023-04-03T04:23:06;102711.00;;;-1.70
71463;BMP180;59266;52.608;13.260;2023-04-03T04:25:34;102711.00;;;-1.70
71463;BMP180;59266;52.608;13.260;2023-04-03T04:28:02;102703.00;;;-1.70
71463;BMP180;59266;52.608;13.260;2023-04-03T04:30:31;102703.00;;;-1.70
71463;BMP180;59266;52.608;13.260;2023-04-03T04:32:59;102712.00;;;-1.70
71463;BMP180;59266;52.608;13.260;2023-04-03T04:35:27;102696.00;;;-1.80
71463;BMP180;59266;52.608;13.260;2023-04-03T04:37:54;102720.00;;;-1.70
71463;BMP180;59266;52.608;13.260;2023-04-03T04:40:23;102719.00;;;-1.80
71463;BMP180;59266;52.608;13.260;2023-04-03T04:42:51;102735.00;;;-1.70
71463;BMP180;59266;52.608;13.260;2023-04-03T04:45:18;102724.00;;;-1.70
71463;BMP180;59266;52.608;13.260;2023-04-03T04:47:44;102739.00;;;-1.70
71463;BMP180;59266;52.608;13.260;2023-04-03T04:50:11;102724.00;;;-1.70
71463;BMP180;59266;52.608;13.260;2023-04-03T04:52:40;102721.00;;;-1.70
71463;BMP180;59266;52.608;13.260;2023-04-03T04:55:09;102722.00;;;-1.70
71463;BMP180;59266;52.608;13.260;2023-04-03T04:57:37;102732.00;;;-1.60
71463;BMP180;59266;52.608;13.260;2023-04-03T05:00:07;102730.00;;;-1.60
71463;BMP180;59266;52.608;13.260;2023-04-03T05:02:34;102737.00;;;-1.60
71463;BMP180;59266;52.608;13.260;2023-04-03T05:05:03;102729.00;;;-1.60
71463;BMP180;59266;52.608;13.260;2023-04-03T05:07:31;102747.00;;;-1.60
71463;BMP180;59266;52.608;13.260;2023-04-03T05:09:58;102748.00;;;-1.60
71463;BMP180;59266;52.608;13.260;2023-04-03T05:12:25;102730.00;;;-1.60
71463;BMP180;59266;52.608;13.260;2023-04-03T05:14:54;102738.00;;;-1.60
71463;BMP180;59266;52.608;13.260;2023-04-03T05:17:21;102753.00;;;-1.50
71463;BMP180;59266;52.608;13.260;2023-04-03T05:19:47;102731.00;;;-1.50
71463;BMP180;59266;52.608;13.260;2023-04-03T05:22:14;102751.00;;;-1.50
71463;BMP180;59266;52.608;13.260;2023-04-03T05:24:41;102749.00;;;-1.50
71463;BMP180;59266;52.608;13.260;2023-04-03T05:27:11;102753.00;;;-1.40
71463;BMP180;59266;52.608;13.260;2023-04-03T05:29:38;102753.00;;;-1.40
71463;BMP180;59266;52.608;13.260;2023-04-03T05:32:04;102741.00;;;-1.30
71463;BMP180;59266;52.608;13.260;2023-04-03T05:34:31;102761.00;;;-1.20
71463;BMP180;59266;52.608;13.260;2023-04-03T05:36:59;102772.00;;;-1.20
71463;BMP180;59266;52.608;13.260;2023-04-03T05:39:26;102754.00;;;-1.10
71463;BMP180;59266;52.608;13.260;2023-04-03T05:41:53;102755.00;;;-1.00
71463;BMP180;59266;52.608;13.260;2023-04-03T05:44:20;102764.00;;;-0.90
71463;BMP180;59266;52.608;13.260;2023-04-03T05:46:47;102751.00;;;-0.90
71463;BMP180;59266;52.608;13.260;2023-04-03T05:49:14;102759.00;;;-0.80
71463;BMP180;59266;52.608;13.260;2023-04-03T05:51:42;102764.00;;;-0.80
71463;BMP180;59266;52.608;13.260;2023-04-03T05:54:16;102689.00;;;-0.70
71463;BMP180;59266;52.608;13.260;2023-04-03T05:56:44;102678.00;;;-0.30
71463;BMP180;59266;52.608;13.260;2023-04-03T05:59:14;102701.00;;;-0.10
71463;BMP180;59266;52.608;13.260;2023-04-03T06:01:41;102718.00;;;0.10
71463;BMP180;59266;52.608;13.260;2023-04-03T06:04:11;102756.00;;;0.30
71463;BMP180;59266;52.608;13.260;2023-04-03T06:06:43;102699.00;;;0.30
71463;BMP180;59266;52.608;13.260;2023-04-03T06:09:11;102655.00;;;0.70
71463;BMP180;59266;52.608;13.260;2023-04-03T06:11:38;102570.00;;;0.70
71463;BMP180;59266;52.608;13.260;2023-04-03T06:14:05;102204.00;;;1.00
71463;BMP180;59266;52.608;13.260;2023-04-03T06:16:33;102046.00;;;2.70
71463;BMP180;59266;52.608;13.260;2023-04-03T06:19:05;101749.00;;;4.90
71463;BMP180;59266;52.608;13.260;2023-04-03T06:21:32;101747.00;;;7.80
71463;BMP180;59266;52.608;13.260;2023-04-03T06:23:59;101773.00;;;10.50
71463;BMP180;59266;52.608;13.260;2023-04-03T06:26:25;101750.00;;;9.70
71463;BMP180;59266;52.608;13.260;2023-04-03T06:28:53;101755.00;;;9.30
71463;BMP180;59266;52.608;13.260;2023-04-03T06:31:20;101758.00;;;9.80
71463;BMP180;59266;52.608;13.260;2023-04-03T06:33:48;101743.00;;;9.80
71463;BMP180;59266;52.608;13.260;2023-04-03T06:36:15;101757.00;;;11.00
71463;BMP180;59266;52.608;13.260;2023-04-03T06:38:46;102071.00;;;13.10
71463;BMP180;59266;52.608;13.260;2023-04-03T06:41:14;102127.00;;;12.40
71463;BMP180;59266;52.608;13.260;2023-04-03T06:43:41;102062.00;;;12.50
71463;BMP180;59266;52.608;13.260;2023-04-03T06:46:15;102245.00;;;12.30
71463;BMP180;59266;52.608;13.260;2023-04-03T06:48:43;102258.00;;;10.80
71463;BMP180;59266;52.608;13.260;2023-04-03T06:51:22;102192.00;;;11.40
71463;BMP180;59266;52.608;13.260;2023-04-03T06:53:54;102206.00;;;11.50
71463;BMP180;59266;52.608;13.260;2023-04-03T06:56:21;102482.00;;;13.20
71463;BMP180;59266;52.608;13.260;2023-04-03T06:58:49;102766.00;;;15.50
71463;BMP180;59266;52.608;13.260;2023-04-03T07:01:17;102783.00;;;14.40
71463;BMP180;59266;52.608;13.260;2023-04-03T07:03:47;102777.00;;;15.30
71463;BMP180;59266;52.608;13.260;2023-04-03T07:06:16;102781.00;;;14.60
71463;BMP180;59266;52.608;13.260;2023-04-03T07:08:43;102797.00;;;15.10
71463;BMP180;59266;52.608;13.260;2023-04-03T07:11:10;102770.00;;;12.20
71463;BMP180;59266;52.608;13.260;2023-04-03T07:13:37;102774.00;;;15.60
71463;BMP180;59266;52.608;13.260;2023-04-03T07:16:04;102793.00;;;13.50
71463;BMP180;59266;52.608;13.260;2023-04-03T07:18:33;102793.00;;;15.20
71463;BMP180;59266;52.608;13.260;2023-04-03T07:20:59;102813.00;;;15.90
71463;BMP180;59266;52.608;13.260;2023-04-03T07:23:27;102794.00;;;14.90
71463;BMP180;59266;52.608;13.260;2023-04-03T07:25:54;102797.00;;;14.30
71463;BMP180;59266;52.608;13.260;2023-04-03T07:28:21;102798.00;;;16.40
71463;BMP180;59266;52.608;13.260;2023-04-03T07:30:53;102804.00;;;15.40
71463;BMP180;59266;52.608;13.260;2023-04-03T07:33:22;102792.00;;;13.60
71463;BMP180;59266;52.608;13.260;2023-04-03T07:35:49;102810.00;;;16.90
71463;BMP180;59266;52.608;13.260;2023-04-03T07:38:16;102815.00;;;18.80
71463;BMP180;59266;52.608;13.260;2023-04-03T07:40:47;102809.00;;;18.20
71463;BMP180;59266;52.608;13.260;2023-04-03T07:43:18;102806.00;;;16.10
71463;BMP180;59266;52.608;13.260;2023-04-03T07:45:45;102838.00;;;15.40
71463;BMP180;59266;52.608;13.260;2023-04-03T07:48:12;102839.00;;;13.00
71463;BMP180;59266;52.608;13.260;2023-04-03T07:50:42;102834.00;;;11.80
71463;BMP180;59266;52.608;13.260;2023-04-03T07:53:09;102841.00;;;12.90
71463;BMP180;59266;52.608;13.260;2023-04-03T07:55:35;102842.00;;;12.00
71463;BMP180;59266;52.608;13.260;2023-04-03T07:58:14;102850.00;;;10.80
71463;BMP180;59266;52.608;13.260;2023-04-03T08:00:43;102852.00;;;10.70
71463;BMP180;59266;52.608;13.260;2023-04-03T08:03:10;102846.00;;;9.60
71463;BMP180;59266;52.608;13.260;2023-04-03T08:05:40;102849.00;;;8.60
71463;BMP180;59266;52.608;13.260;2023-04-03T08:08:09;102844.00;;;9.20
71463;BMP180;59266;52.608;13.260;2023-04-03T08:10:37;102839.00;;;9.30
71463;BMP180;59266;52.608;13.260;2023-04-03T08:13:04;102854.00;;;7.60
71463;BMP180;59266;52.608;13.260;2023-04-03T08:15:31;102850.00;;;8.80
71463;BMP180;59266;52.608;13.260;2023-04-03T08:17:59;102845.00;;;8.70
71463;BMP180;59266;52.608;13.260;2023-04-03T08:20:26;102856.00;;;9.00
71463;BMP180;59266;52.608;13.260;2023-04-03T08:22:53;102859.00;;;8.50
71463;BMP180;59266;52.608;13.260;2023-04-03T08:25:21;102852.00;;;7.90
71463;BMP180;59266;52.608;13.260;2023-04-03T08:27:49;102847.00;;;7.10
71463;BMP180;59266;52.608;13.260;2023-04-03T08:30:17;102849.00;;;6.80
71463;BMP180;59266;52.608;13.260;2023-04-03T08:32:48;102843.00;;;6.40
71463;BMP180;59266;52.608;13.260;2023-04-03T08:35:14;102853.00;;;6.10
71463;BMP180;59266;52.608;13.260;2023-04-03T08:37:42;102848.00;;;6.20
71463;BMP180;59266;52.608;13.260;2023-04-03T08:40:13;102837.00;;;6.60
71463;BMP180;59266;52.608;13.260;2023-04-03T08:45:32;102832.00;;;7.10
71463;BMP180;59266;52.608;13.260;2023-04-03T08:48:05;102798.00;;;11.00
71463;BMP180;59266;52.608;13.260;2023-04-03T08:50:38;102802.00;;;15.40
71463;BMP180;59266;52.608;13.260;2023-04-03T08:53:06;102823.00;;;13.20
71463;BMP180;59266;52.608;13.260;2023-04-03T08:55:43;102819.00;;;11.80
71463;BMP180;59266;52.608;13.260;2023-04-03T08:58:26;102817.00;;;9.70
71463;BMP180;59266;52.608;13.260;2023-04-03T09:00:58;102840.00;;;8.40
71463;BMP180;59266;52.608;13.260;2023-04-03T09:03:25;102846.00;;;7.60
71463;BMP180;59266;52.608;13.260;2023-04-03T09:06:12;102837.00;;;7.00
71463;BMP180;59266;52.608;13.260;2023-04-03T09:08:44;102835.00;;;7.00
71463;BMP180;59266;52.608;13.260;2023-04-03T09:11:16;102838.00;;;7.10
71463;BMP180;59266;52.608;13.260;2023-04-03T09:14:04;102839.00;;;7.20
71463;BMP180;59266;52.608;13.260;2023-04-03T09:19:28;102843.00;;;7.00
71463;BMP180;59266;52.608;13.260;2023-04-03T09:22:16;102843.00;;;7.10
71463;BMP180;59266;52.608;13.260;2023-04-03T09:24:47;102822.00;;;7.10
71463;BMP180;59266;52.608;13.260;2023-04-03T09:27:16;102820.00;;;7.50
71463;BMP180;59266;52.608;13.260;2023-04-03T09:29:44;102819.00;;;8.10
71463;BMP180;59266;52.608;13.260;2023-04-03T09:32:27;102823.00;;;7.70
71463;BMP180;59266;52.608;13.260;2023-04-03T09:34:57;102824.00;;;8.20
71463;BMP180;59266;52.608;13.260;2023-04-03T09:37:40;102828.00;;;11.00
71463;BMP180;59266;52.608;13.260;2023-04-03T09:43:29;102828.00;;;12.60
71463;BMP180;59266;52.608;13.260;2023-04-03T09:45:48;102804.00;;;11.30
71463;BMP180;59266;52.608;13.260;2023-04-03T09:48:18;102777.00;;;14.20
71463;BMP180;59266;52.608;13.260;2023-04-03T09:53:39;102812.00;;;15.50
71463;BMP180;59266;52.608;13.260;2023-04-03T09:58:46;102767.00;;;13.90
71463;BMP180;59266;52.608;13.260;2023-04-03T10:01:23;102775.00;;;15.50
71463;BMP180;59266;52.608;13.260;2023-04-03T10:04:09;102809.00;;;14.70
71463;BMP180;59266;52.608;13.260;2023-04-03T10:06:51;102783.00;;;13.20
71463;BMP180;59266;52.608;13.260;2023-04-03T10:09:29;102804.00;;;14.40
71463;BMP180;59266;52.608;13.260;2023-04-03T10:12:06;102808.00;;;13.10
71463;BMP180;59266;52.608;13.260;2023-04-03T10:14:38;102801.00;;;12.20
71463;BMP180;59266;52.608;13.260;2023-04-03T10:20:26;102818.00;;;9.80
71463;BMP180;59266;52.608;13.260;2023-04-03T10:29:05;102807.00;;;8.80
71463;BMP180;59266;52.608;13.260;2023-04-03T10:31:37;102799.00;;;8.60
71463;BMP180;59266;52.608;13.260;2023-04-03T10:34:21;102801.00;;;9.30
71463;BMP180;59266;52.608;13.260;2023-04-03T10:37:08;102795.00;;;9.20
71463;BMP180;59266;52.608;13.260;2023-04-03T10:39:52;102785.00;;;9.70
71463;BMP180;59266;52.608;13.260;2023-04-03T10:42:32;102765.00;;;11.50
71463;BMP180;59266;52.608;13.260;2023-04-03T10:45:18;102780.00;;;11.50
71463;BMP180;59266;52.608;13.260;2023-04-03T10:48:01;102774.00;;;11.40
71463;BMP180;59266;52.608;13.260;2023-04-03T10:53:44;102767.00;;;10.60
71463;BMP180;59266;52.608;13.260;2023-04-03T10:59:02;102772.00;;;10.20
71463;BMP180;59266;52.608;13.260;2023-04-03T11:01:38;102776.00;;;9.90
71463;BMP180;59266;52.608;13.260;2023-04-03T11:04:09;102774.00;;;9.50
71463;BMP180;59266;52.608;13.260;2023-04-03T11:07:22;102757.00;;;9.80
71463;BMP180;59266;52.608;13.260;2023-04-03T11:09:44;102767.00;;;10.00
71463;BMP180;59266;52.608;13.260;2023-04-03T11:12:27;102763.00;;;10.10
71463;BMP180;59266;52.608;13.260;2023-04-03T11:14:56;102766.00;;;10.20
71463;BMP180;59266;52.608;13.260;2023-04-03T11:18:18;102768.00;;;9.40
71463;BMP180;59266;52.608;13.260;2023-04-03T11:20:23;102768.00;;;9.30
71463;BMP180;59266;52.608;13.260;2023-04-03T11:23:00;102759.00;;;9.30
71463;BMP180;59266;52.608;13.260;2023-04-03T11:25:29;102753.00;;;9.40
71463;BMP180;59266;52.608;13.260;2023-04-03T11:28:12;102758.00;;;8.90
71463;BMP180;59266;52.608;13.260;2023-04-03T12:02:43;102764.00;;;7.90
71463;BMP180;59266;52.608;13.260;2023-04-03T12:05:29;102756.00;;;7.80
71463;BMP180;59266;52.608;13.260;2023-04-03T12:08:23;102757.00;;;8.10
71463;BMP180;59266;52.608;13.260;2023-04-03T12:27:12;102761.00;;;8.10
71463;BMP180;59266;52.608;13.260;2023-04-03T12:29:51;102755.00;;;7.90
71463;BMP180;59266;52.608;13.260;2023-04-03T12:32:32;102761.00;;;8.60
71463;BMP180;59266;52.608;13.260;2023-04-03T12:35:20;102748.00;;;7.90
71463;BMP180;59266;52.608;13.260;2023-04-03T12:38:25;102746.00;;;7.80
71463;BMP180;59266;52.608;13.260;2023-04-03T12:41:23;102731.00;;;7.80
71463;BMP180;59266;52.608;13.260;2023-04-03T12:44:19;102753.00;;;7.60
71463;BMP180;59266;52.608;13.260;2023-04-03T12:46:52;102756.00;;;8.20
71463;BMP180;59266;52.608;13.260;2023-04-03T12:51:54;102737.00;;;8.30
71463;BMP180;59266;52.608;13.260;2023-04-03T12:54:27;102734.00;;;8.80
71463;BMP180;59266;52.608;13.260;2023-04-03T12:57:24;102733.00;;;9.00
71463;BMP180;59266;52.608;13.260;2023-04-03T12:59:55;102742.00;;;8.80
71463;BMP180;59266;52.608;13.260;2023-04-03T13:02:28;102733.00;;;8.40
71463;BMP180;59266;52.608;13.260;2023-04-03T13:04:58;102730.00;;;8.50
71463;BMP180;59266;52.608;13.260;2023-04-03T13:07:32;102734.00;;;8.50
71463;BMP180;59266;52.608;13.260;2023-04-03T13:10:14;102727.00;;;8.70
71463;BMP180;59266;52.608;13.260;2023-04-03T13:12:54;102725.00;;;8.00
71463;BMP180;59266;52.608;13.260;2023-04-03T13:15:23;102732.00;;;8.60
71463;BMP180;59266;52.608;13.260;2023-04-03T13:17:52;102740.00;;;8.10
71463;BMP180;59266;52.608;13.260;2023-04-03T13:20:32;102735.00;;;7.60
71463;BMP180;59266;52.608;13.260;2023-04-03T13:23:05;102726.00;;;7.50
71463;BMP180;59266;52.608;13.260;2023-04-03T13:25:40;102733.00;;;7.30
71463;BMP180;59266;52.608;13.260;2023-04-03T13:28:09;102731.00;;;7.30
71463;BMP180;59266;52.608;13.260;2023-04-03T13:30:41;102733.00;;;7.20
71463;BMP180;59266;52.608;13.260;2023-04-03T13:33:26;102736.00;;;7.40
71463;BMP180;59266;52.608;13.260;2023-04-03T13:36:06;102734.00;;;7.30
71463;BMP180;59266;52.608;13.260;2023-04-03T13:38:34;102724.00;;;7.40
71463;BMP180;59266;52.608;13.260;2023-04-03T13:41:21;102728.00;;;7.00
71463;BMP180;59266;52.608;13.260;2023-04-03T13:43:48;102723.00;;;7.00
71463;BMP180;59266;52.608;13.260;2023-04-03T13:48:46;102724.00;;;7.30
71463;BMP180;59266;52.608;13.260;2023-04-03T13:53:51;102717.00;;;7.00
71463;BMP180;59266;52.608;13.260;2023-04-03T13:56:36;102717.00;;;6.70
71463;BMP180;59266;52.608;13.260;2023-04-03T14:01:54;102717.00;;;6.90
71463;BMP180;59266;52.608;13.260;2023-04-03T14:04:27;102714.00;;;7.00
71463;BMP180;59266;52.608;13.260;2023-04-03T14:06:55;102709.00;;;7.00
71463;BMP180;59266;52.608;13.260;2023-04-03T14:09:29;102717.00;;;7.20
71463;BMP180;59266;52.608;13.260;2023-04-03T14:12:05;102718.00;;;7.00
71463;BMP180;59266;52.608;13.260;2023-04-03T14:14:36;102721.00;;;6.70
71463;BMP180;59266;52.608;13.260;2023-04-03T14:17:15;102716.00;;;7.10
71463;BMP180;59266;52.608;13.260;2023-04-03T14:19:51;102718.00;;;6.60
71463;BMP180;59266;52.608;13.260;2023-04-03T14:22:24;102715.00;;;6.70
71463;BMP180;59266;52.608;13.260;2023-04-03T14:24:52;102718.00;;;7.20
71463;BMP180;59266;52.608;13.260;2023-04-03T14:27:26;102710.00;;;7.40
71463;BMP180;59266;52.608;13.260;2023-04-03T14:29:57;102708.00;;;7.00
71463;BMP180;59266;52.608;13.260;2023-04-03T14:32:26;102694.00;;;6.70
71463;BMP180;59266;52.608;13.260;2023-04-03T14:34:53;102693.00;;;7.00
71463;BMP180;59266;52.608;13.260;2023-04-03T14:37:23;102702.00;;;7.20
71463;BMP180;59266;52.608;13.260;2023-04-03T14:39:53;102702.00;;;7.40
71463;BMP180;59266;52.608;13.260;2023-04-03T14:42:26;102697.00;;;7.60
71463;BMP180;59266;52.608;13.260;2023-04-03T14:44:53;102701.00;;;7.50
71463;BMP180;59266;52.608;13.260;2023-04-03T14:47:23;102701.00;;;6.80
71463;BMP180;59266;52.608;13.260;2023-04-03T14:49:58;102699.00;;;7.10
71463;BMP180;59266;52.608;13.260;2023-04-03T14:52:31;102698.00;;;7.30
71463;BMP180;59266;52.608;13.260;2023-04-03T14:54:59;102696.00;;;7.00
71463;BMP180;59266;52.608;13.260;2023-04-03T14:57:28;102696.00;;;7.00
71463;BMP180;59266;52.608;13.260;2023-04-03T14:59:54;102695.00;;;7.10
71463;BMP180;59266;52.608;13.260;2023-04-03T15:02:29;102686.00;;;6.80
71463;BMP180;59266;52.608;13.260;2023-04-03T15:04:57;102695.00;;;6.60
71463;BMP180;59266;52.608;13.260;2023-04-03T15:07:28;102701.00;;;6.50
71463;BMP180;59266;52.608;13.260;2023-04-03T15:09:55;102709.00;;;6.50
71463;BMP180;59266;52.608;13.260;2023-04-03T15:12:24;102706.00;;;6.50
71463;BMP180;59266;52.608;13.260;2023-04-03T15:14:51;102704.00;;;6.30
71463;BMP180;59266;52.608;13.260;2023-04-03T15:17:27;102704.00;;;6.20
71463;BMP180;59266;52.608;13.260;2023-04-03T15:19:54;102701.00;;;6.20
71463;BMP180;59266;52.608;13.260;2023-04-03T15:22:20;102693.00;;;6.30
71463;BMP180;59266;52.608;13.260;2023-04-03T15:24:47;102700.00;;;6.20
71463;BMP180;59266;52.608;13.260;2023-04-03T15:27:19;102695.00;;;6.30
71463;BMP180;59266;52.608;13.260;2023-04-03T15:29:50;102686.00;;;6.30
71463;BMP180;59266;52.608;13.260;2023-04-03T15:35:36;102700.00;;;6.00
71463;BMP180;59266;52.608;13.260;2023-04-03T15:38:16;102689.00;;;5.90
71463;BMP180;59266;52.608;13.260;2023-04-03T15:40:57;102690.00;;;5.90
71463;BMP180;59266;52.608;13.260;2023-04-03T15:43:27;102691.00;;;5.90
71463;BMP180;59266;52.608;13.260;2023-04-03T15:46:25;102685.00;;;6.10
71463;BMP180;59266;52.608;13.260;2023-04-03T15:49:06;102688.00;;;6.10
71463;BMP180;59266;52.608;13.260;2023-04-03T15:51:33;102687.00;;;6.10
71463;BMP180;59266;52.608;13.260;2023-04-03T15:54:00;102689.00;;;6.00